sensor_id;sensor_type;location;lat;lon;timestamp;temperature;humidity
37289;DHT22;23174;49.462;11.000;2024-01-30T00:01:39;7.10;99.90
37289;DHT22;23174;49.462;11.000;2024-01-30T00:03:40;7.10;99.90
37289;DHT22;23174;49.462;11.000;2024-01-30T00:05:40;7.20;99.90
37289;DHT22;23174;49.462;11.000;2024-01-30T00:07:41;7.20;99.90
37289;DHT22;23174;49.462;11.000;2024-01-30T00:09:41;7.20;99.90
37289;DHT22;23174;49.462;11.000;2024-01-30T00:11:42;7.20;99.90
37289;DHT22;23174;49.462;11.000;2024-01-30T00:13:42;7.20;99.90
37289;DHT22;23174;49.462;11.000;2024-01-30T00:15:43;7.20;99.90
37289;DHT22;23174;49.462;11.000;2024-01-30T00:17:43;7.20;99.90
37289;DHT22;23174;49.462;11.000;2024-01-30T00:19:44;7.20;99.90
37289;DHT22;23174;49.462;11.000;2024-01-30T00:21:44;7.10;99.90
37289;DHT22;23174;49.462;11.000;2024-01-30T00:23:45;7.00;99.90
37289;DHT22;23174;49.462;11.000;2024-01-30T00:25:45;7.00;99.90
37289;DHT22;23174;49.462;11.000;2024-01-30T00:27:45;6.90;99.90
37289;DHT22;23174;49.462;11.000;2024-01-30T00:29:46;7.00;99.90
37289;DHT22;23174;49.462;11.000;2024-01-30T00:31:46;7.00;99.90
37289;DHT22;23174;49.462;11.000;2024-01-30T00:33:47;7.00;99.90
37289;DHT22;23174;49.462;11.000;2024-01-30T00:35:47;6.90;99.90
37289;DHT22;23174;49.462;11.000;2024-01-30T00:37:48;6.90;99.90
37289;DHT22;23174;49.462;11.000;2024-01-30T00:39:49;6.90;99.90
37289;DHT22;23174;49.462;11.000;2024-01-30T00:41:49;6.90;99.90
37289;DHT22;23174;49.462;11.000;2024-01-30T00:43:50;6.90;99.90
37289;DHT22;23174;49.462;11.000;2024-01-30T00:45:50;6.80;99.90
37289;DHT22;23174;49.462;11.000;2024-01-30T00:47:52;6.80;99.90
37289;DHT22;23174;49.462;11.000;2024-01-30T00:49:53;6.80;99.90
37289;DHT22;23174;49.462;11.000;2024-01-30T00:51:54;6.80;99.90
37289;DHT22;23174;49.462;11.000;2024-01-30T00:53:54;6.70;99.90
37289;DHT22;23174;49.462;11.000;2024-01-30T00:55:55;6.60;99.90
37289;DHT22;23174;49.462;11.000;2024-01-30T00:57:55;6.60;99.90
37289;DHT22;23174;49.462;11.000;2024-01-30T00:59:57;6.70;99.90
37289;DHT22;23174;49.462;11.000;2024-01-30T01:01:57;6.70;99.90
37289;DHT22;23174;49.462;11.000;2024-01-30T01:03:58;6.70;99.90
37289;DHT22;23174;49.462;11.000;2024-01-30T01:05:58;6.70;99.90
37289;DHT22;23174;49.462;11.000;2024-01-30T01:07:59;6.60;99.90
37289;DHT22;23174;49.462;11.000;2024-01-30T01:09:59;6.60;99.90
37289;DHT22;23174;49.462;11.000;2024-01-30T01:12:00;6.70;99.90
37289;DHT22;23174;49.462;11.000;2024-01-30T01:14:00;6.60;99.90
37289;DHT22;23174;49.462;11.000;2024-01-30T01:16:01;6.60;99.90
37289;DHT22;23174;49.462;11.000;2024-01-30T01:18:01;6.60;99.90
37289;DHT22;23174;49.462;11.000;2024-01-30T01:20:03;6.60;99.90
37289;DHT22;23174;49.462;11.000;2024-01-30T01:22:04;6.80;99.90
37289;DHT22;23174;49.462;11.000;2024-01-30T01:24:04;6.90;99.90
37289;DHT22;23174;49.462;11.000;2024-01-30T01:26:05;6.80;99.90
37289;DHT22;23174;49.462;11.000;2024-01-30T01:28:05;6.70;99.90
37289;DHT22;23174;49.462;11.000;2024-01-30T01:30:11;6.70;99.90
37289;DHT22;23174;49.462;11.000;2024-01-30T01:32:12;6.60;99.90
37289;DHT22;23174;49.462;11.000;2024-01-30T01:34:13;6.60;99.90
37289;DHT22;23174;49.462;11.000;2024-01-30T01:36:13;6.70;99.90
37289;DHT22;23174;49.462;11.000;2024-01-30T01:38:14;6.60;99.90
37289;DHT22;23174;49.462;11.000;2024-01-30T01:40:14;6.60;99.90
37289;DHT22;23174;49.462;11.000;2024-01-30T01:42:15;6.60;99.90
37289;DHT22;23174;49.462;11.000;2024-01-30T01:44:15;6.60;99.90
37289;DHT22;23174;49.462;11.000;2024-01-30T01:46:17;6.50;99.90
37289;DHT22;23174;49.462;11.000;2024-01-30T01:48:18;6.60;99.90
37289;DHT22;23174;49.462;11.000;2024-01-30T01:50:20;6.60;99.90
37289;DHT22;23174;49.462;11.000;2024-01-30T01:52:20;6.60;99.90
37289;DHT22;23174;49.462;11.000;2024-01-30T01:54:21;6.60;99.90
37289;DHT22;23174;49.462;11.000;2024-01-30T01:56:23;6.70;99.90
37289;DHT22;23174;49.462;11.000;2024-01-30T01:58:26;6.70;99.90
37289;DHT22;23174;49.462;11.000;2024-01-30T02:00:29;6.70;99.90
37289;DHT22;23174;49.462;11.000;2024-01-30T02:02:30;6.70;99.90
37289;DHT22;23174;49.462;11.000;2024-01-30T02:04:32;6.70;99.90
37289;DHT22;23174;49.462;11.000;2024-01-30T02:06:34;6.70;99.90
37289;DHT22;23174;49.462;11.000;2024-01-30T02:08:36;6.60;99.90
37289;DHT22;23174;49.462;11.000;2024-01-30T02:10:37;6.60;99.90
37289;DHT22;23174;49.462;11.000;2024-01-30T02:12:38;6.60;99.90
37289;DHT22;23174;49.462;11.000;2024-01-30T02:14:50;6.60;99.90
37289;DHT22;23174;49.462;11.000;2024-01-30T02:16:50;6.60;99.90
37289;DHT22;23174;49.462;11.000;2024-01-30T02:18:51;6.60;99.90
37289;DHT22;23174;49.462;11.000;2024-01-30T02:20:53;6.60;99.90
37289;DHT22;23174;49.462;11.000;2024-01-30T02:22:54;6.60;99.90
37289;DHT22;23174;49.462;11.000;2024-01-30T02:24:56;6.70;99.90
37289;DHT22;23174;49.462;11.000;2024-01-30T02:26:56;6.70;99.90
37289;DHT22;23174;49.462;11.000;2024-01-30T02:28:57;6.70;99.90
37289;DHT22;23174;49.462;11.000;2024-01-30T02:30:57;6.60;99.90
37289;DHT22;23174;49.462;11.000;2024-01-30T02:32:58;6.50;99.90
37289;DHT22;23174;49.462;11.000;2024-01-30T02:34:58;6.50;99.90
37289;DHT22;23174;49.462;11.000;2024-01-30T02:36:59;6.50;99.90
37289;DHT22;23174;49.462;11.000;2024-01-30T02:38:59;6.60;99.90
37289;DHT22;23174;49.462;11.000;2024-01-30T02:41:00;6.80;99.90
37289;DHT22;23174;49.462;11.000;2024-01-30T02:43:02;6.60;99.90
37289;DHT22;23174;49.462;11.000;2024-01-30T02:45:03;6.50;99.90
37289;DHT22;23174;49.462;11.000;2024-01-30T02:47:03;6.40;99.90
37289;DHT22;23174;49.462;11.000;2024-01-30T02:49:04;6.40;99.90
37289;DHT22;23174;49.462;11.000;2024-01-30T02:51:04;6.40;99.90
37289;DHT22;23174;49.462;11.000;2024-01-30T02:53:05;6.70;99.90
37289;DHT22;23174;49.462;11.000;2024-01-30T02:55:06;6.50;99.90
37289;DHT22;23174;49.462;11.000;2024-01-30T02:57:07;6.40;99.90
37289;DHT22;23174;49.462;11.000;2024-01-30T02:59:07;6.50;99.90
37289;DHT22;23174;49.462;11.000;2024-01-30T03:01:08;6.50;99.90
37289;DHT22;23174;49.462;11.000;2024-01-30T03:03:08;6.60;99.90
37289;DHT22;23174;49.462;11.000;2024-01-30T03:05:09;6.60;99.90
37289;DHT22;23174;49.462;11.000;2024-01-30T03:07:09;6.70;99.90
37289;DHT22;23174;49.462;11.000;2024-01-30T03:09:10;6.70;99.90
37289;DHT22;23174;49.462;11.000;2024-01-30T03:11:10;6.70;99.90
37289;DHT22;23174;49.462;11.000;2024-01-30T03:13:11;6.70;99.90
37289;DHT22;23174;49.462;11.000;2024-01-30T03:15:12;6.70;99.90
37289;DHT22;23174;49.462;11.000;2024-01-30T03:17:12;6.70;99.90
37289;DHT22;23174;49.462;11.000;2024-01-30T03:19:13;6.70;99.90
37289;DHT22;23174;49.462;11.000;2024-01-30T03:21:13;6.70;99.90
37289;DHT22;23174;49.462;11.000;2024-01-30T03:23:14;6.70;99.90
37289;DHT22;23174;49.462;11.000;2024-01-30T03:25:14;6.70;99.90
37289;DHT22;23174;49.462;11.000;2024-01-30T03:27:14;6.70;99.90
37289;DHT22;23174;49.462;11.000;2024-01-30T03:29:15;6.70;99.90
37289;DHT22;23174;49.462;11.000;2024-01-30T03:31:16;6.70;99.90
37289;DHT22;23174;49.462;11.000;2024-01-30T03:33:16;6.70;99.90
37289;DHT22;23174;49.462;11.000;2024-01-30T03:35:18;6.70;99.90
37289;DHT22;23174;49.462;11.000;2024-01-30T03:37:19;6.60;99.90
37289;DHT22;23174;49.462;11.000;2024-01-30T03:39:20;6.60;99.90
37289;DHT22;23174;49.462;11.000;2024-01-30T03:41:20;6.60;99.90
37289;DHT22;23174;49.462;11.000;2024-01-30T03:43:21;6.60;99.90
37289;DHT22;23174;49.462;11.000;2024-01-30T03:45:21;6.60;99.90
37289;DHT22;23174;49.462;11.000;2024-01-30T03:47:22;6.50;99.90
37289;DHT22;23174;49.462;11.000;2024-01-30T03:49:22;6.50;99.90
37289;DHT22;23174;49.462;11.000;2024-01-30T03:51:23;6.40;99.90
37289;DHT22;23174;49.462;11.000;2024-01-30T03:53:23;6.50;99.90
37289;DHT22;23174;49.462;11.000;2024-01-30T03:55:24;6.50;99.90
37289;DHT22;23174;49.462;11.000;2024-01-30T03:57:24;6.50;99.90
37289;DHT22;23174;49.462;11.000;2024-01-30T03:59:25;6.50;99.90
37289;DHT22;23174;49.462;11.000;2024-01-30T04:01:25;6.50;99.90
37289;DHT22;23174;49.462;11.000;2024-01-30T04:03:26;6.40;99.90
37289;DHT22;23174;49.462;11.000;2024-01-30T04:05:26;6.50;99.90
37289;DHT22;23174;49.462;11.000;2024-01-30T04:07:27;6.50;99.90
37289;DHT22;23174;49.462;11.000;2024-01-30T04:09:27;6.50;99.90
37289;DHT22;23174;49.462;11.000;2024-01-30T04:11:28;6.60;99.90
37289;DHT22;23174;49.462;11.000;2024-01-30T04:13:29;6.60;99.90
37289;DHT22;23174;49.462;11.000;2024-01-30T04:15:29;6.60;99.90
37289;DHT22;23174;49.462;11.000;2024-01-30T04:17:30;6.60;99.90
37289;DHT22;23174;49.462;11.000;2024-01-30T04:19:30;6.60;99.90
37289;DHT22;23174;49.462;11.000;2024-01-30T04:21:31;6.60;99.90
37289;DHT22;23174;49.462;11.000;2024-01-30T04:23:31;6.60;99.90
37289;DHT22;23174;49.462;11.000;2024-01-30T04:25:32;6.60;99.90
37289;DHT22;23174;49.462;11.000;2024-01-30T04:27:32;6.60;99.90
37289;DHT22;23174;49.462;11.000;2024-01-30T04:29:33;6.70;99.90
37289;DHT22;23174;49.462;11.000;2024-01-30T04:31:36;6.70;99.90
37289;DHT22;23174;49.462;11.000;2024-01-30T04:33:37;6.70;99.90
37289;DHT22;23174;49.462;11.000;2024-01-30T04:35:37;6.60;99.90
37289;DHT22;23174;49.462;11.000;2024-01-30T04:37:38;6.60;99.90
37289;DHT22;23174;49.462;11.000;2024-01-30T04:39:38;6.50;99.90
37289;DHT22;23174;49.462;11.000;2024-01-30T04:41:39;6.50;99.90
37289;DHT22;23174;49.462;11.000;2024-01-30T04:43:40;6.50;99.90
37289;DHT22;23174;49.462;11.000;2024-01-30T04:45:40;6.50;99.90
37289;DHT22;23174;49.462;11.000;2024-01-30T04:47:41;6.50;99.90
37289;DHT22;23174;49.462;11.000;2024-01-30T04:49:41;6.50;99.90
37289;DHT22;23174;49.462;11.000;2024-01-30T04:51:42;6.60;99.90
37289;DHT22;23174;49.462;11.000;2024-01-30T04:53:43;6.50;99.90
37289;DHT22;23174;49.462;11.000;2024-01-30T04:55:43;6.60;99.90
37289;DHT22;23174;49.462;11.000;2024-01-30T04:57:44;6.60;99.90
37289;DHT22;23174;49.462;11.000;2024-01-30T04:59:44;6.70;99.90
37289;DHT22;23174;49.462;11.000;2024-01-30T05:01:45;6.70;99.90
37289;DHT22;23174;49.462;11.000;2024-01-30T05:03:45;6.80;99.90
37289;DHT22;23174;49.462;11.000;2024-01-30T05:05:46;6.80;99.90
37289;DHT22;23174;49.462;11.000;2024-01-30T05:07:46;6.90;99.90
37289;DHT22;23174;49.462;11.000;2024-01-30T05:09:47;6.90;99.90
37289;DHT22;23174;49.462;11.000;2024-01-30T05:11:47;6.80;99.90
37289;DHT22;23174;49.462;11.000;2024-01-30T05:13:48;6.80;99.90
37289;DHT22;23174;49.462;11.000;2024-01-30T05:15:48;6.80;99.90
37289;DHT22;23174;49.462;11.000;2024-01-30T05:17:49;6.80;99.90
37289;DHT22;23174;49.462;11.000;2024-01-30T05:19:49;6.80;99.90
37289;DHT22;23174;49.462;11.000;2024-01-30T05:21:50;6.80;99.90
37289;DHT22;23174;49.462;11.000;2024-01-30T05:23:50;6.80;99.90
37289;DHT22;23174;49.462;11.000;2024-01-30T05:25:51;6.70;99.90
37289;DHT22;23174;49.462;11.000;2024-01-30T05:27:51;6.80;99.90
37289;DHT22;23174;49.462;11.000;2024-01-30T05:29:52;6.80;99.90
37289;DHT22;23174;49.462;11.000;2024-01-30T05:31:52;6.80;99.90
37289;DHT22;23174;49.462;11.000;2024-01-30T05:33:54;6.80;99.90
37289;DHT22;23174;49.462;11.000;2024-01-30T05:35:54;6.70;99.90
37289;DHT22;23174;49.462;11.000;2024-01-30T05:37:55;6.70;99.90
37289;DHT22;23174;49.462;11.000;2024-01-30T05:39:55;6.70;99.90
37289;DHT22;23174;49.462;11.000;2024-01-30T05:41:56;6.80;99.90
37289;DHT22;23174;49.462;11.000;2024-01-30T05:43:56;6.70;99.90
37289;DHT22;23174;49.462;11.000;2024-01-30T05:45:57;6.60;99.90
37289;DHT22;23174;49.462;11.000;2024-01-30T05:47:57;6.70;99.90
37289;DHT22;23174;49.462;11.000;2024-01-30T05:49:58;6.60;99.90
37289;DHT22;23174;49.462;11.000;2024-01-30T05:51:58;6.60;99.90
37289;DHT22;23174;49.462;11.000;2024-01-30T05:53:58;6.70;99.90
37289;DHT22;23174;49.462;11.000;2024-01-30T05:56:01;6.70;99.90
37289;DHT22;23174;49.462;11.000;2024-01-30T05:58:02;6.70;99.90
37289;DHT22;23174;49.462;11.000;2024-01-30T06:00:03;6.70;99.90
37289;DHT22;23174;49.462;11.000;2024-01-30T06:02:04;6.70;99.90
37289;DHT22;23174;49.462;11.000;2024-01-30T06:04:04;6.70;99.90
37289;DHT22;23174;49.462;11.000;2024-01-30T06:06:05;6.70;99.90
37289;DHT22;23174;49.462;11.000;2024-01-30T06:08:06;6.70;99.90
37289;DHT22;23174;49.462;11.000;2024-01-30T06:10:07;6.70;99.90
37289;DHT22;23174;49.462;11.000;2024-01-30T06:12:09;6.70;99.90
37289;DHT22;23174;49.462;11.000;2024-01-30T06:14:12;6.70;99.90
37289;DHT22;23174;49.462;11.000;2024-01-30T06:16:12;6.60;99.90
37289;DHT22;23174;49.462;11.000;2024-01-30T06:18:13;6.70;99.90
37289;DHT22;23174;49.462;11.000;2024-01-30T06:20:13;6.70;99.90
37289;DHT22;23174;49.462;11.000;2024-01-30T06:22:14;6.70;99.90
37289;DHT22;23174;49.462;11.000;2024-01-30T06:24:15;6.70;99.90
37289;DHT22;23174;49.462;11.000;2024-01-30T06:26:15;6.80;99.90
37289;DHT22;23174;49.462;11.000;2024-01-30T06:28:16;6.70;99.90
37289;DHT22;23174;49.462;11.000;2024-01-30T06:30:16;6.70;99.90
37289;DHT22;23174;49.462;11.000;2024-01-30T06:32:17;6.60;99.90
37289;DHT22;23174;49.462;11.000;2024-01-30T06:34:18;6.70;99.90
37289;DHT22;23174;49.462;11.000;2024-01-30T06:36:18;6.60;99.90
37289;DHT22;23174;49.462;11.000;2024-01-30T06:38:19;6.50;99.90
37289;DHT22;23174;49.462;11.000;2024-01-30T06:40:19;6.60;99.90
37289;DHT22;23174;49.462;11.000;2024-01-30T06:42:20;6.60;99.90
37289;DHT22;23174;49.462;11.000;2024-01-30T06:44:20;6.70;99.90
37289;DHT22;23174;49.462;11.000;2024-01-30T06:46:21;6.60;99.90
37289;DHT22;23174;49.462;11.000;2024-01-30T06:48:21;6.70;99.90
37289;DHT22;23174;49.462;11.000;2024-01-30T06:50:22;6.60;99.90
37289;DHT22;23174;49.462;11.000;2024-01-30T06:52:22;6.60;99.90
37289;DHT22;23174;49.462;11.000;2024-01-30T06:54:23;6.70;99.90
37289;DHT22;23174;49.462;11.000;2024-01-30T06:56:23;6.70;99.90
37289;DHT22;23174;49.462;11.000;2024-01-30T06:58:24;6.70;99.90
37289;DHT22;23174;49.462;11.000;2024-01-30T07:00:24;6.70;99.90
37289;DHT22;23174;49.462;11.000;2024-01-30T07:02:24;6.70;99.90
37289;DHT22;23174;49.462;11.000;2024-01-30T07:04:25;6.70;99.90
37289;DHT22;23174;49.462;11.000;2024-01-30T07:06:25;6.70;99.90
37289;DHT22;23174;49.462;11.000;2024-01-30T07:08:26;6.70;99.90
37289;DHT22;23174;49.462;11.000;2024-01-30T07:10:26;6.80;99.90
37289;DHT22;23174;49.462;11.000;2024-01-30T07:12:27;6.90;99.90
37289;DHT22;23174;49.462;11.000;2024-01-30T07:14:27;6.90;99.90
37289;DHT22;23174;49.462;11.000;2024-01-30T07:16:28;6.80;99.90
37289;DHT22;23174;49.462;11.000;2024-01-30T07:18:28;6.80;99.90
37289;DHT22;23174;49.462;11.000;2024-01-30T07:20:29;6.90;99.90
37289;DHT22;23174;49.462;11.000;2024-01-30T07:22:30;6.80;99.90
37289;DHT22;23174;49.462;11.000;2024-01-30T07:24:31;6.80;99.90
37289;DHT22;23174;49.462;11.000;2024-01-30T07:26:31;6.80;99.90
37289;DHT22;23174;49.462;11.000;2024-01-30T07:28:32;6.70;99.90
37289;DHT22;23174;49.462;11.000;2024-01-30T07:30:33;6.70;99.90
37289;DHT22;23174;49.462;11.000;2024-01-30T07:32:34;6.80;99.90
37289;DHT22;23174;49.462;11.000;2024-01-30T07:34:34;6.80;99.90
37289;DHT22;23174;49.462;11.000;2024-01-30T07:36:36;6.90;99.90
37289;DHT22;23174;49.462;11.000;2024-01-30T07:38:36;7.10;99.90
37289;DHT22;23174;49.462;11.000;2024-01-30T07:40:37;6.90;99.90
37289;DHT22;23174;49.462;11.000;2024-01-30T07:42:38;6.90;99.90
37289;DHT22;23174;49.462;11.000;2024-01-30T07:44:38;6.80;99.90
37289;DHT22;23174;49.462;11.000;2024-01-30T07:46:39;6.90;99.90
37289;DHT22;23174;49.462;11.000;2024-01-30T07:48:39;7.00;99.90
37289;DHT22;23174;49.462;11.000;2024-01-30T07:50:40;6.90;99.90
37289;DHT22;23174;49.462;11.000;2024-01-30T07:52:41;7.00;99.90
37289;DHT22;23174;49.462;11.000;2024-01-30T07:54:41;7.10;99.90
37289;DHT22;23174;49.462;11.000;2024-01-30T07:56:42;7.20;99.90
37289;DHT22;23174;49.462;11.000;2024-01-30T07:58:42;7.20;99.90
37289;DHT22;23174;49.462;11.000;2024-01-30T08:00:43;7.30;99.90
37289;DHT22;23174;49.462;11.000;2024-01-30T08:02:43;7.30;99.90
37289;DHT22;23174;49.462;11.000;2024-01-30T08:04:44;7.40;99.90
37289;DHT22;23174;49.462;11.000;2024-01-30T08:06:48;7.30;99.90
37289;DHT22;23174;49.462;11.000;2024-01-30T08:08:49;7.40;99.90
37289;DHT22;23174;49.462;11.000;2024-01-30T08:10:50;7.40;99.90
37289;DHT22;23174;49.462;11.000;2024-01-30T08:12:51;7.50;99.90
37289;DHT22;23174;49.462;11.000;2024-01-30T08:14:51;7.40;99.90
37289;DHT22;23174;49.462;11.000;2024-01-30T08:16:52;7.40;99.90
37289;DHT22;23174;49.462;11.000;2024-01-30T08:18:52;7.40;99.90
37289;DHT22;23174;49.462;11.000;2024-01-30T08:20:54;7.40;99.90
37289;DHT22;23174;49.462;11.000;2024-01-30T08:22:54;7.40;99.90
37289;DHT22;23174;49.462;11.000;2024-01-30T08:24:54;7.50;99.90
37289;DHT22;23174;49.462;11.000;2024-01-30T08:26:55;7.50;99.90
37289;DHT22;23174;49.462;11.000;2024-01-30T08:28:55;7.50;99.90
37289;DHT22;23174;49.462;11.000;2024-01-30T08:30:56;7.60;99.90
37289;DHT22;23174;49.462;11.000;2024-01-30T08:32:56;7.50;99.90
37289;DHT22;23174;49.462;11.000;2024-01-30T08:34:57;7.50;99.90
37289;DHT22;23174;49.462;11.000;2024-01-30T08:36:57;7.60;99.90
37289;DHT22;23174;49.462;11.000;2024-01-30T08:38:58;7.60;99.90
37289;DHT22;23174;49.462;11.000;2024-01-30T08:40:58;7.50;99.90
37289;DHT22;23174;49.462;11.000;2024-01-30T08:42:59;7.50;99.90
37289;DHT22;23174;49.462;11.000;2024-01-30T08:44:59;7.50;99.90
37289;DHT22;23174;49.462;11.000;2024-01-30T08:47:00;7.50;99.90
37289;DHT22;23174;49.462;11.000;2024-01-30T08:49:00;6.50;99.90
37289;DHT22;23174;49.462;11.000;2024-01-30T08:51:01;6.00;99.90
37289;DHT22;23174;49.462;11.000;2024-01-30T08:53:02;5.80;99.90
37289;DHT22;23174;49.462;11.000;2024-01-30T08:55:03;5.70;99.90
37289;DHT22;23174;49.462;11.000;2024-01-30T08:57:05;5.70;99.90
37289;DHT22;23174;49.462;11.000;2024-01-30T08:59:05;5.70;99.90
37289;DHT22;23174;49.462;11.000;2024-01-30T09:01:06;6.10;99.90
37289;DHT22;23174;49.462;11.000;2024-01-30T09:03:06;6.40;99.90
37289;DHT22;23174;49.462;11.000;2024-01-30T09:05:07;6.50;99.90
37289;DHT22;23174;49.462;11.000;2024-01-30T09:07:09;6.60;99.90
37289;DHT22;23174;49.462;11.000;2024-01-30T09:09:09;6.70;99.90
37289;DHT22;23174;49.462;11.000;2024-01-30T09:11:13;6.70;99.90
37289;DHT22;23174;49.462;11.000;2024-01-30T09:13:14;6.80;99.90
37289;DHT22;23174;49.462;11.000;2024-01-30T09:15:15;6.90;99.90
37289;DHT22;23174;49.462;11.000;2024-01-30T09:17:15;7.00;99.90
37289;DHT22;23174;49.462;11.000;2024-01-30T09:19:16;7.00;99.90
37289;DHT22;23174;49.462;11.000;2024-01-30T09:21:16;7.10;99.90
37289;DHT22;23174;49.462;11.000;2024-01-30T09:23:17;7.10;99.90
37289;DHT22;23174;49.462;11.000;2024-01-30T09:25:19;7.10;99.90
37289;DHT22;23174;49.462;11.000;2024-01-30T09:27:19;7.10;99.90
37289;DHT22;23174;49.462;11.000;2024-01-30T09:29:21;7.20;99.90
37289;DHT22;23174;49.462;11.000;2024-01-30T09:31:22;7.20;99.90
37289;DHT22;23174;49.462;11.000;2024-01-30T09:33:22;7.20;99.90
37289;DHT22;23174;49.462;11.000;2024-01-30T09:35:22;7.30;99.90
37289;DHT22;23174;49.462;11.000;2024-01-30T09:37:23;7.30;99.90
37289;DHT22;23174;49.462;11.000;2024-01-30T09:39:24;7.30;99.90
37289;DHT22;23174;49.462;11.000;2024-01-30T09:41:25;7.30;99.90
37289;DHT22;23174;49.462;11.000;2024-01-30T09:43:32;7.40;99.90
37289;DHT22;23174;49.462;11.000;2024-01-30T09:45:33;7.40;99.90
37289;DHT22;23174;49.462;11.000;2024-01-30T09:47:41;7.90;99.90
37289;DHT22;23174;49.462;11.000;2024-01-30T09:49:44;8.20;99.90
37289;DHT22;23174;49.462;11.000;2024-01-30T09:51:45;8.40;99.90
37289;DHT22;23174;49.462;11.000;2024-01-30T09:53:47;8.50;99.90
37289;DHT22;23174;49.462;11.000;2024-01-30T09:55:50;8.60;99.90
37289;DHT22;23174;49.462;11.000;2024-01-30T09:57:51;8.60;99.90
37289;DHT22;23174;49.462;11.000;2024-01-30T09:59:51;8.60;99.90
37289;DHT22;23174;49.462;11.000;2024-01-30T10:01:54;8.60;99.90
37289;DHT22;23174;49.462;11.000;2024-01-30T10:03:55;8.80;99.90
37289;DHT22;23174;49.462;11.000;2024-01-30T10:05:56;8.80;99.90
37289;DHT22;23174;49.462;11.000;2024-01-30T10:07:57;8.90;99.90
37289;DHT22;23174;49.462;11.000;2024-01-30T10:09:57;8.90;99.90
37289;DHT22;23174;49.462;11.000;2024-01-30T10:11:58;8.90;99.90
37289;DHT22;23174;49.462;11.000;2024-01-30T10:14:00;8.80;99.90
37289;DHT22;23174;49.462;11.000;2024-01-30T10:16:01;8.90;99.90
37289;DHT22;23174;49.462;11.000;2024-01-30T10:18:03;9.00;99.90
37289;DHT22;23174;49.462;11.000;2024-01-30T10:20:05;9.00;99.90
37289;DHT22;23174;49.462;11.000;2024-01-30T10:22:05;9.10;99.90
37289;DHT22;23174;49.462;11.000;2024-01-30T10:24:06;9.10;99.90
37289;DHT22;23174;49.462;11.000;2024-01-30T10:26:07;9.10;99.90
37289;DHT22;23174;49.462;11.000;2024-01-30T10:28:08;9.10;99.90
37289;DHT22;23174;49.462;11.000;2024-01-30T10:30:08;9.10;99.90
37289;DHT22;23174;49.462;11.000;2024-01-30T10:32:09;9.20;99.90
37289;DHT22;23174;49.462;11.000;2024-01-30T10:34:10;9.20;99.90
37289;DHT22;23174;49.462;11.000;2024-01-30T10:36:13;9.30;99.90
37289;DHT22;23174;49.462;11.000;2024-01-30T10:38:15;9.30;99.90
37289;DHT22;23174;49.462;11.000;2024-01-30T10:40:20;9.30;99.90
37289;DHT22;23174;49.462;11.000;2024-01-30T10:42:26;9.30;99.90
37289;DHT22;23174;49.462;11.000;2024-01-30T10:44:30;9.30;99.90
37289;DHT22;23174;49.462;11.000;2024-01-30T10:46:35;9.40;99.90
37289;DHT22;23174;49.462;11.000;2024-01-30T10:48:42;9.50;99.90
37289;DHT22;23174;49.462;11.000;2024-01-30T10:50:45;9.40;99.90
37289;DHT22;23174;49.462;11.000;2024-01-30T10:52:46;9.40;99.90
37289;DHT22;23174;49.462;11.000;2024-01-30T10:54:47;9.50;99.90
37289;DHT22;23174;49.462;11.000;2024-01-30T10:56:50;9.50;99.90
37289;DHT22;23174;49.462;11.000;2024-01-30T10:58:52;9.60;99.90
37289;DHT22;23174;49.462;11.000;2024-01-30T11:00:54;9.60;99.90
37289;DHT22;23174;49.462;11.000;2024-01-30T11:02:55;9.70;99.90
37289;DHT22;23174;49.462;11.000;2024-01-30T11:04:57;9.80;99.90
37289;DHT22;23174;49.462;11.000;2024-01-30T11:06:58;9.80;99.90
37289;DHT22;23174;49.462;11.000;2024-01-30T11:09:06;9.90;99.90
37289;DHT22;23174;49.462;11.000;2024-01-30T11:11:10;9.90;99.90
37289;DHT22;23174;49.462;11.000;2024-01-30T11:13:13;9.90;99.90
37289;DHT22;23174;49.462;11.000;2024-01-30T11:15:17;9.90;99.90
37289;DHT22;23174;49.462;11.000;2024-01-30T11:17:18;10.00;99.90
37289;DHT22;23174;49.462;11.000;2024-01-30T11:19:23;10.10;99.90
37289;DHT22;23174;49.462;11.000;2024-01-30T11:21:25;10.10;99.90
37289;DHT22;23174;49.462;11.000;2024-01-30T11:23:26;10.10;99.90
37289;DHT22;23174;49.462;11.000;2024-01-30T11:25:27;10.10;99.90
37289;DHT22;23174;49.462;11.000;2024-01-30T11:27:27;10.10;99.90
37289;DHT22;23174;49.462;11.000;2024-01-30T11:29:28;10.10;99.90
37289;DHT22;23174;49.462;11.000;2024-01-30T11:31:29;10.20;99.90
37289;DHT22;23174;49.462;11.000;2024-01-30T11:33:29;10.30;99.90
37289;DHT22;23174;49.462;11.000;2024-01-30T11:35:32;10.30;99.90
37289;DHT22;23174;49.462;11.000;2024-01-30T11:37:36;10.20;99.90
37289;DHT22;23174;49.462;11.000;2024-01-30T11:39:39;10.30;99.90
37289;DHT22;23174;49.462;11.000;2024-01-30T11:41:42;10.70;99.90
37289;DHT22;23174;49.462;11.000;2024-01-30T11:43:51;10.60;99.90
37289;DHT22;23174;49.462;11.000;2024-01-30T11:45:52;10.60;99.90
37289;DHT22;23174;49.462;11.000;2024-01-30T11:47:53;10.50;99.90
37289;DHT22;23174;49.462;11.000;2024-01-30T11:49:54;10.60;99.90
37289;DHT22;23174;49.462;11.000;2024-01-30T11:51:54;10.60;99.90
37289;DHT22;23174;49.462;11.000;2024-01-30T11:53:55;10.60;99.90
37289;DHT22;23174;49.462;11.000;2024-01-30T11:55:56;10.60;99.90
37289;DHT22;23174;49.462;11.000;2024-01-30T11:57:59;10.70;99.90
37289;DHT22;23174;49.462;11.000;2024-01-30T12:00:00;10.60;99.90
37289;DHT22;23174;49.462;11.000;2024-01-30T12:02:01;10.60;99.90
37289;DHT22;23174;49.462;11.000;2024-01-30T12:04:02;10.70;99.90
37289;DHT22;23174;49.462;11.000;2024-01-30T12:06:03;10.80;99.90
37289;DHT22;23174;49.462;11.000;2024-01-30T12:08:05;10.80;99.90
37289;DHT22;23174;49.462;11.000;2024-01-30T12:10:05;10.90;99.90
37289;DHT22;23174;49.462;11.000;2024-01-30T12:12:08;10.90;99.90
37289;DHT22;23174;49.462;11.000;2024-01-30T12:14:12;10.90;99.90
37289;DHT22;23174;49.462;11.000;2024-01-30T12:16:13;10.90;99.90
37289;DHT22;23174;49.462;11.000;2024-01-30T12:18:14;11.00;99.90
37289;DHT22;23174;49.462;11.000;2024-01-30T12:20:17;11.00;99.90
37289;DHT22;23174;49.462;11.000;2024-01-30T12:22:18;11.00;99.90
37289;DHT22;23174;49.462;11.000;2024-01-30T12:24:19;11.10;99.90
37289;DHT22;23174;49.462;11.000;2024-01-30T12:26:19;11.10;99.90
37289;DHT22;23174;49.462;11.000;2024-01-30T12:28:20;11.10;99.90
37289;DHT22;23174;49.462;11.000;2024-01-30T12:30:22;11.20;99.90
37289;DHT22;23174;49.462;11.000;2024-01-30T12:32:23;11.20;99.90
37289;DHT22;23174;49.462;11.000;2024-01-30T12:34:25;11.30;99.90
37289;DHT22;23174;49.462;11.000;2024-01-30T12:36:25;11.20;99.90
37289;DHT22;23174;49.462;11.000;2024-01-30T12:38:26;11.20;99.90
37289;DHT22;23174;49.462;11.000;2024-01-30T12:40:27;11.20;99.90
37289;DHT22;23174;49.462;11.000;2024-01-30T12:42:28;11.20;99.90
37289;DHT22;23174;49.462;11.000;2024-01-30T12:44:28;11.20;99.90